Flight Track Log - Related Links

Times and Time Zones

All times are in EDT time to prevent confusion due to time zone crossing. See the AAL832 flight status page for this flight to view local times or setup timezone preferences in your user account.

Time Position Orientation Groundspeed Altitude Reporting Facility
EDT Latitude Longitude Course Direction KTS MPH feet Rate Location/Type
Sun 05:51:53 PM 41.9167 -87.9167 163° South 194 223 3,700  Level Chicago TRACON
Sun 05:52:47 PM 41.8667 -87.9167 180° South 253 291 5,400 2,752 Climbing Chicago TRACON
Sun 05:53:00 PM 41.6572 -87.7173 155° Southeast  Level Estimated
Sun 05:53:42 PM 41.7881 -87.9000 171° South 280 322 8,700  Level Chicago Center
Sun 05:54:00 PM 41.5490 -87.6545 153° Southeast  Level Estimated
Sun 05:54:44 PM 41.7200 -87.8361 145° Southeast 297 342 11,900  Level Chicago Center
Sun 05:55:00 PM 41.4408 -87.5920 166° South  Level Estimated
Sun 05:55:46 PM 41.6461 -87.7711 147° Southeast 313 360 14,700  Level Chicago Center
Sun 05:56:00 PM 41.3325 -87.5298 180° South  Level Estimated
Sun 05:56:48 PM 41.5636 -87.6981 146° Southeast 349 402 16,600  Level Chicago Center
Sun 05:57:00 PM 41.2269 -87.4692 163° South  Level Estimated
Sun 05:57:50 PM 41.4706 -87.6119 145° Southeast 397 457 19,000  Level Chicago Center
Sun 05:58:52 PM 41.3600 -87.5614 161° South 425 489 21,500 2,256 Climbing Chicago Center
Sun 05:59:55 PM 41.2394 -87.5406 173° South 431 496 23,700 1,984 Climbing Chicago Center
Sun 06:00:56 PM 41.0889 -87.5036 170° South 455 524 25,600 1,902 Climbing Chicago Center
Sun 06:01:58 PM 40.9631 -87.4689 168° South 462 532 27,600 1,742 Climbing Chicago Center
Sun 06:03:00 PM 40.8333 -87.4342 169° South 472 543 29,200 1,488 Climbing Chicago Center
Sun 06:04:03 PM 40.6997 -87.3997 169° South 486 559 30,700 1,728 Climbing Chicago Center
Sun 06:05:05 PM 40.5653 -87.3636 168° South 492 566 32,800 2,177 Climbing Chicago Center
Sun 06:06:07 PM 40.4189 -87.3197 167° South 483 556 35,200 2,032 Climbing Chicago Center
Sun 06:07:09 PM 40.2950 -87.2614 160° South 473 544 37,000 1,452 Climbing Chicago Center
Sun 06:08:11 PM 40.1744 -87.2047 160° South 462 532 38,200 968 Climbing Chicago Center
Sun 06:09:13 PM 40.0542 -87.1467 160° South 459 528 39,000 421 Climbing Chicago Center
Sun 06:10:05 PM 39.9353 -87.0753 155° Southeast 463 533 39,000  Level Indianapolis Center
Sun 06:11:07 PM 39.8292 -86.9839 147° Southeast 457 526 39,000  Level Indianapolis Center
Sun 06:12:09 PM 39.7231 -86.8947 147° Southeast 454 522 39,000  Level Indianapolis Center
Sun 06:13:11 PM 39.6178 -86.8064 147° Southeast 452 520 39,000  Level Indianapolis Center
Sun 06:14:13 PM 39.5117 -86.7183 147° Southeast 453 521 39,000  Level Indianapolis Center
Sun 06:15:15 PM 39.3872 -86.6158 148° Southeast 455 524 39,000  Level Indianapolis Center
Sun 06:16:17 PM 39.2808 -86.5275 147° Southeast 455 524 39,000  Level Indianapolis Center
Sun 06:17:19 PM 39.1739 -86.4394 147° Southeast 455 524 39,000  Level Indianapolis Center
Sun 06:18:21 PM 39.0653 -86.3511 148° Southeast 459 528 39,000  Level Indianapolis Center
Sun 06:19:23 PM 38.9575 -86.2631 148° Southeast 458 527 39,000  Level Indianapolis Center
Sun 06:20:25 PM 38.8331 -86.1606 147° Southeast 461 531 39,000  Level Indianapolis Center
Sun 06:21:27 PM 38.7233 -86.0719 148° Southeast 462 532 39,000  Level Indianapolis Center
Sun 06:22:29 PM 38.6139 -85.9825 147° Southeast 463 533 39,000  Level Indianapolis Center
Sun 06:23:31 PM 38.5042 -85.8947 148° Southeast 461 531 39,000  Level Indianapolis Center
Sun 06:24:34 PM 38.3944 -85.8067 148° Southeast 461 531 39,000  Level Indianapolis Center
Sun 06:25:35 PM 38.2864 -85.7200 148° Southeast 457 526 39,000  Level Indianapolis Center
Sun 06:26:37 PM 38.1775 -85.6347 148° Southeast 456 525 39,000  Level Indianapolis Center
Sun 06:27:39 PM 38.0706 -85.5481 147° Southeast 453 521 39,000  Level Indianapolis Center
Sun 06:28:41 PM 37.9403 -85.4475 149° Southeast 453 521 39,000  Level Indianapolis Center
Sun 06:29:43 PM 37.8319 -85.3631 148° Southeast 453 521 39,000  Level Indianapolis Center
Sun 06:30:46 PM 37.7339 -85.2853 148° Southeast 451 519 39,000  Level Indianapolis Center
Sun 06:31:48 PM 37.6081 -85.1878 148° Southeast 456 525 39,000  Level Indianapolis Center
Sun 06:32:50 PM 37.5006 -85.1050 149° Southeast 452 520 39,000  Level Indianapolis Center
Sun 06:33:53 PM 37.3931 -85.0211 148° Southeast 454 522 39,000  Level Indianapolis Center
Sun 06:34:54 PM 37.2850 -84.9381 149° Southeast 452 520 39,000  Level Indianapolis Center
Sun 06:35:56 PM 37.1778 -84.8558 149° Southeast 453 521 39,000  Level Indianapolis Center
Sun 06:36:58 PM 37.0522 -84.7594 148° Southeast 453 521 39,000  Level Indianapolis Center
Sun 06:38:00 PM 36.9436 -84.6753 148° Southeast 454 522 39,000  Level Indianapolis Center
Sun 06:39:02 PM 36.8353 -84.5919 148° Southeast 455 524 39,000  Level Indianapolis Center
Sun 06:40:04 PM 36.7278 -84.5114 149° Southeast 451 519 39,000  Level Indianapolis Center
Sun 06:41:06 PM 36.6217 -84.4306 149° Southeast 452 520 39,000  Level Indianapolis Center
Sun 06:42:08 PM 36.4950 -84.3344 149° Southeast 456 525 39,000  Level Indianapolis Center
Sun 06:43:10 PM 36.4019 -84.2644 149° Southeast 454 522 39,000  Level Indianapolis Center
Sun 06:44:12 PM 36.2686 -84.1658 149° Southeast 459 528 39,000  Level Indianapolis Center
Sun 06:45:14 PM 36.1592 -84.0847 149° Southeast 457 526 39,000  Level Indianapolis Center
Sun 06:46:19 PM 36.0519 -84.0081 150° Southeast 452 520 39,000  Level Atlanta Center
Sun 06:47:19 PM 35.9414 -83.9258 149° Southeast 452 520 39,000  Level Atlanta Center
Sun 06:48:19 PM 35.8369 -83.8442 148° Southeast 452 520 39,000  Level Atlanta Center
Sun 06:49:19 PM 35.7306 -83.7547 146° Southeast 452 520 39,000  Level Atlanta Center
Sun 06:50:19 PM 35.6217 -83.6708 148° Southeast 457 526 39,000  Level Atlanta Center
Sun 06:51:19 PM 35.5172 -83.5819 145° Southeast 462 532 39,000  Level Atlanta Center
Sun 06:52:19 PM 35.4019 -83.4908 147° Southeast 462 532 39,000  Level Atlanta Center
Sun 06:53:19 PM 35.2911 -83.4025 147° Southeast 462 532 39,000  Level Atlanta Center
Sun 06:54:19 PM 35.1819 -83.3197 148° Southeast 462 532 39,000  Level Atlanta Center
Sun 06:55:19 PM 35.0792 -83.2317 145° Southeast 462 532 39,000  Level Atlanta Center
Sun 06:56:19 PM 34.9806 -83.1542 147° Southeast 462 532 39,000  Level Atlanta Center
Sun 06:57:19 PM 34.8736 -83.0667 146° Southeast 462 532 39,000  Level Atlanta Center
Sun 06:58:19 PM 34.7664 -82.9844 148° Southeast 464 534 39,000  Level Atlanta Center
Sun 06:59:19 PM 34.6633 -82.9022 147° Southeast 454 522 39,000  Level Atlanta Center
Sun 07:00:19 PM 34.5414 -82.8081 148° Southeast 460 529 39,000  Level Atlanta Center
Sun 07:01:19 PM 34.4425 -82.7289 147° Southeast 450 518 39,000 200 Level Atlanta Center
Sun 07:02:19 PM 34.3289 -82.6403 147° Southeast 465 535 39,400 500 Climbing Atlanta Center
Sun 07:03:19 PM 34.2361 -82.5664 147° Southeast 459 528 40,000 300 Climbing Atlanta Center
Sun 07:04:19 PM 34.1161 -82.4731 147° Southeast 464 534 40,000  Level Atlanta Center
Sun 07:05:19 PM 34.0025 -82.4050 154° Southeast 458 527 40,000  Level Atlanta Center
Sun 07:06:19 PM 33.8853 -82.3697 166° South 446 513 40,000  Level Atlanta Center
Sun 07:07:19 PM 33.7658 -82.3347 166° South 440 506 40,000  Level Atlanta Center
Sun 07:08:19 PM 33.6608 -82.2992 164° South 440 506 40,000  Level Atlanta Center
Sun 07:09:19 PM 33.5289 -82.2619 167° South 439 505 40,000  Level Atlanta Center
Sun 07:10:19 PM 33.4094 -82.2322 168° South 439 505 40,000  Level Atlanta Center
Sun 07:11:19 PM 33.2942 -82.1997 167° South 434 499 40,000  Level Atlanta Center
Sun 07:12:19 PM 33.1747 -82.1675 167° South 434 499 40,000  Level Atlanta Center
Sun 07:13:19 PM 33.0553 -82.1331 166° South 434 499 40,000  Level Atlanta Center
Sun 07:14:19 PM 32.9336 -82.1008 167° South 434 499 40,000  Level Atlanta Center
Sun 07:16:16 PM 32.6958 -82.0336 167° South 456 525 40,000  Level Jacksonville Center
Sun 07:17:16 PM 32.5808 -82.0025 167° South 456 525 40,000  Level Jacksonville Center
Sun 07:18:16 PM 32.4556 -81.9669 167° South 449 517 40,000  Level Jacksonville Center
Sun 07:19:16 PM 32.3467 -81.9361 167° South 449 517 40,000  Level Jacksonville Center
Sun 07:20:16 PM 32.2086 -81.8981 167° South 454 522 40,000  Level Jacksonville Center
Sun 07:21:16 PM 32.0850 -81.8653 167° South 448 516 40,000  Level Jacksonville Center
Sun 07:22:16 PM 31.9594 -81.8322 167° South 459 528 40,000  Level Jacksonville Center
Sun 07:23:16 PM 31.8381 -81.7969 166° South 454 522 40,000  Level Jacksonville Center
Sun 07:24:16 PM 31.7253 -81.7689 168° South 454 522 40,000  Level Jacksonville Center
Sun 07:25:16 PM 31.5892 -81.7317 167° South 448 516 40,000  Level Jacksonville Center
Sun 07:26:16 PM 31.4636 -81.6967 167° South 448 516 40,000  Level Jacksonville Center
Sun 07:27:16 PM 31.3400 -81.6642 167° South 454 522 40,000  Level Jacksonville Center
Sun 07:28:16 PM 31.2292 -81.6342 167° South 454 522 40,000  Level Jacksonville Center
Sun 07:29:16 PM 31.1056 -81.5994 166° South 454 522 40,000  Level Jacksonville Center
Sun 07:30:16 PM 30.9842 -81.5694 168° South 449 517 40,000  Level Jacksonville Center
Sun 07:31:16 PM 30.8606 -81.5325 166° South 449 517 40,000  Level Jacksonville Center
Sun 07:32:16 PM 30.7369 -81.5006 167° South 449 517 40,000  Level Jacksonville Center
Sun 07:33:16 PM 30.6136 -81.4661 166° South 449 517 40,000  Level Jacksonville Center
Sun 07:34:16 PM 30.4961 -81.4317 166° South 449 517 40,000 -150 Level Jacksonville Center
Sun 07:35:16 PM 30.3767 -81.3997 167° South 449 517 39,700 -750 Descending Jacksonville Center
Sun 07:36:16 PM 30.2572 -81.3608 164° South 449 517 38,500 -850 Descending Jacksonville Center
Sun 07:37:16 PM 30.1400 -81.3217 164° South 444 511 38,000 -250 Descending Jacksonville Center
Sun 07:38:16 PM 30.0119 -81.2758 163° South 444 511 38,000  Level Jacksonville Center
Sun 07:39:16 PM 29.8947 -81.2369 164° South 438 504 38,000  Level Jacksonville Center
Sun 07:40:16 PM 29.7772 -81.1983 164° South 438 504 38,000  Level Jacksonville Center
Sun 07:41:16 PM 29.6578 -81.1600 164° South 438 504 38,000  Level Jacksonville Center
Sun 07:42:16 PM 29.5381 -81.1167 163° South 438 504 38,000  Level Jacksonville Center
Sun 07:43:16 PM 29.4247 -81.0758 163° South 438 504 38,000  Level Jacksonville Center
Sun 07:44:16 PM 29.3053 -81.0328 163° South 438 504 38,000  Level Jacksonville Center
Sun 07:45:16 PM 29.1878 -80.9969 165° South 438 504 38,000  Level Jacksonville Center
Sun 07:47:39 PM 28.9008 -80.9033 164° South 448 516 38,000  Level Miami Center
Sun 07:48:39 PM 28.7789 -80.8633 164° South 448 516 38,000  Level Miami Center
Sun 07:49:39 PM 28.6633 -80.8236 163° South 448 516 38,000  Level Miami Center
Sun 07:50:39 PM 28.5414 -80.7814 163° South 453 521 38,000  Level Miami Center
Sun 07:51:39 PM 28.4233 -80.7419 164° South 453 521 38,000  Level Miami Center
Sun 07:52:39 PM 28.3097 -80.7028 163° South 458 527 38,000  Level Miami Center
Sun 07:53:39 PM 28.1917 -80.6656 164° South 452 520 38,000 -550 Level Miami Center
Sun 07:54:39 PM 28.0656 -80.6239 164° South 452 520 36,900 -1,550 Descending Miami Center
Sun 07:55:39 PM 27.9414 -80.5775 162° South 458 527 34,900 -2,450 Descending Miami Center
Sun 07:56:39 PM 27.8153 -80.5356 164° South 464 534 32,000 -3,000 Descending Miami Center
Sun 07:57:39 PM 27.6889 -80.4942 164° South 474 545 28,900 -2,750 Descending Miami Center
Sun 07:58:39 PM 27.5669 -80.4458 161° South 474 545 26,500 -2,400 Descending Miami Center
Sun 07:59:39 PM 27.4492 -80.3975 160° South 469 540 24,100 -1,250 Descending Miami Center
Sun 08:00:39 PM 27.3292 -80.3519 161° South 458 527 24,000 -50 Descending Miami Center
Sun 08:01:39 PM 27.2094 -80.3017 160° South 458 527 24,000  Level Miami Center
Sun 08:02:39 PM 27.0914 -80.2536 160° South 458 527 24,000 -750 Level Miami Center
Sun 08:03:39 PM 26.9756 -80.2036 159° South 458 527 22,500 -2,150 Descending Miami Center
Sun 08:04:39 PM 26.8536 -80.1561 161° South 441 507 19,700 -2,750 Descending Miami Center
Sun 08:05:39 PM 26.7439 -80.1133 161° South 425 489 17,000 -2,700 Descending Miami Center
Sun 08:06:39 PM 26.6506 -80.0828 164° South 413 475 14,300 -2,388 Descending Miami Center
Sun 08:07:17 PM 26.5736 -80.0692 171° South 355 409 13,100 -1,300 Descending Miami Center
Sun 08:07:39 PM 26.5444 -80.0639 171° South 382 440 13,000 -73 Descending Miami Center
Sun 08:08:39 PM 26.4653 -80.0500 171° South 336 387 13,000 -864 Level Miami Center
Sun 08:09:44 PM 26.3592 -80.0333 172° South 316 364 11,200 -1,500 Descending Miami Center
Sun 08:10:39 PM 26.2906 -80.0197 170° South 315 362 10,000 -626 Descending Miami Center
Sun 08:11:39 PM 26.2047 -80.0292 186° South 310 357 10,000  Level Miami Center
Sun 08:12:39 PM 26.1164 -80.0522 193° South 315 362 10,000 -250 Level Miami Center
Sun 08:13:39 PM 26.0367 -80.0733 193° South 310 357 9,500 -950 Descending Miami Center
Sun 08:14:39 PM 25.9650 -80.1014 199° South 298 343 8,100 -750 Descending Miami Center
Sun 08:15:39 PM 25.9342 -80.1767 246° West 255 293 8,000 -50 Descending Miami Center
Sun 08:16:39 PM 25.9300 -80.2597 267° West 255 293 8,000 -635 Level Miami Center
Sun 08:17:04 PM 25.9250 -80.3011 262° West 225 259 7,100 -2,029 Descending Miami Center
Sun 08:17:47 PM 25.9258 -80.3497 271° West 232 267 5,700 -1,855 Descending Miami Center
Sun 08:18:54 PM 25.9344 -80.4308 277° West 235 270 3,700 -1,791 Descending Miami Center

Login

Don't have an account? Register now (free) for customized features, flight alerts, and more!